createdAt,value
2018-09-13T00:01:49.169Z,88.80
2018-09-13T00:04:17.447Z,88.30
2018-09-13T00:06:46.015Z,88.20
2018-09-13T00:09:15.378Z,88.00
2018-09-13T00:11:43.688Z,88.30
2018-09-13T00:14:11.970Z,89.30
2018-09-13T00:16:40.248Z,90.10
2018-09-13T00:19:08.531Z,90.20
2018-09-13T00:21:37.301Z,90.10
2018-09-13T00:24:05.604Z,90.10
2018-09-13T00:26:33.880Z,90.00
2018-09-13T00:29:02.524Z,89.70
2018-09-13T00:31:33.152Z,89.30
2018-09-13T00:34:01.481Z,89.40
2018-09-13T00:36:29.738Z,89.10
2018-09-13T00:38:57.974Z,88.90
2018-09-13T00:41:26.199Z,89.00
2018-09-13T00:43:55.443Z,89.10
2018-09-13T00:46:25.021Z,88.90
2018-09-13T00:48:53.286Z,88.90
2018-09-13T00:51:22.562Z,89.80
2018-09-13T00:53:51.187Z,89.60
2018-09-13T00:56:20.111Z,90.10
2018-09-13T00:58:49.156Z,90.10
2018-09-13T01:01:17.442Z,90.00
2018-09-13T01:03:46.713Z,90.00
2018-09-13T01:06:15.001Z,90.00
2018-09-13T01:08:43.371Z,89.70
2018-09-13T01:11:11.660Z,89.70
2018-09-13T01:13:39.946Z,89.40
2018-09-13T01:16:09.694Z,89.20
2018-09-13T01:18:37.932Z,89.00
2018-09-13T01:21:06.541Z,88.70
2018-09-13T01:23:35.459Z,88.70
2018-09-13T01:26:03.681Z,88.90
2018-09-13T01:28:31.955Z,89.30
2018-09-13T01:31:00.272Z,89.30
2018-09-13T01:33:29.111Z,89.90
2018-09-13T01:35:57.390Z,89.70
2018-09-13T01:38:25.646Z,89.20
2018-09-13T01:40:53.918Z,88.90
2018-09-13T01:43:22.330Z,89.00
2018-09-13T01:45:51.744Z,89.20
2018-09-13T01:48:19.989Z,88.80
2018-09-13T01:50:48.339Z,88.80
2018-09-13T01:53:16.695Z,89.40
2018-09-13T01:55:45.528Z,89.90
2018-09-13T01:58:13.847Z,89.70
2018-09-13T02:00:42.158Z,89.80
2018-09-13T02:03:10.626Z,89.20
2018-09-13T02:05:38.908Z,88.80
2018-09-13T02:08:07.773Z,88.60
2018-09-13T02:10:36.039Z,88.40
2018-09-13T02:13:04.324Z,88.10
2018-09-13T02:15:32.587Z,88.00
2018-09-13T02:18:00.874Z,87.90
2018-09-13T02:20:29.147Z,87.70
2018-09-13T02:22:57.437Z,87.70
2018-09-13T02:25:25.721Z,87.70
2018-09-13T02:27:53.999Z,87.90
2018-09-13T02:30:22.279Z,87.60
2018-09-13T02:32:50.526Z,87.90
2018-09-13T02:35:18.874Z,88.30
2018-09-13T02:37:47.139Z,88.30
2018-09-13T02:40:15.433Z,89.50
2018-09-13T02:42:43.701Z,89.60
2018-09-13T02:45:11.967Z,89.60
2018-09-13T02:47:40.223Z,89.10
2018-09-13T02:50:08.554Z,89.00
2018-09-13T02:52:36.937Z,88.90
2018-09-13T02:55:05.224Z,89.00
2018-09-13T02:57:33.480Z,90.30
2018-09-13T03:00:02.556Z,90.20
2018-09-13T03:02:31.517Z,90.10
2018-09-13T03:04:59.763Z,90.10
2018-09-13T03:07:28.768Z,89.90
2018-09-13T03:09:57.632Z,89.60
2018-09-13T03:12:25.982Z,89.90
2018-09-13T03:14:54.244Z,90.80
2018-09-13T03:17:22.506Z,92.10
2018-09-13T03:19:51.442Z,92.20
2018-09-13T03:22:19.712Z,91.50
2018-09-13T03:24:47.960Z,91.80
2018-09-13T03:27:16.488Z,91.90
2018-09-13T03:29:45.520Z,92.10
2018-09-13T03:32:13.757Z,91.60
2018-09-13T03:34:42.098Z,91.70
2018-09-13T03:37:10.431Z,91.40
2018-09-13T03:39:38.711Z,91.20
2018-09-13T03:42:07.058Z,90.90
2018-09-13T03:44:35.227Z,90.80
2018-09-13T03:47:03.483Z,90.70
2018-09-13T03:49:31.764Z,90.50
2018-09-13T03:51:59.992Z,90.50
2018-09-13T03:54:28.278Z,90.60
2018-09-13T03:56:56.525Z,90.50
2018-09-13T03:59:25.333Z,90.40
2018-09-13T04:01:54.423Z,91.20
2018-09-13T04:04:23.115Z,91.60
2018-09-13T04:06:51.367Z,92.60
2018-09-13T04:09:19.655Z,92.80
2018-09-13T04:11:47.852Z,92.40
2018-09-13T04:14:16.095Z,93.00
2018-09-13T04:16:44.335Z,92.70
2018-09-13T04:19:12.623Z,92.40
2018-09-13T04:21:41.593Z,92.80
2018-09-13T04:24:09.835Z,92.30
2018-09-13T04:26:38.394Z,92.10
2018-09-13T04:29:06.654Z,91.70
2018-09-13T04:31:34.897Z,91.30
2018-09-13T04:34:03.199Z,91.30
2018-09-13T04:36:31.477Z,91.20
2018-09-13T04:38:59.733Z,91.10
2018-09-13T04:41:28.350Z,90.90
2018-09-13T04:43:56.594Z,90.80
2018-09-13T04:46:24.894Z,91.10
2018-09-13T04:48:53.206Z,91.50
2018-09-13T04:51:22.131Z,91.30
2018-09-13T04:53:50.394Z,91.20
2018-09-13T04:56:18.681Z,91.30
2018-09-13T04:58:46.964Z,92.10
2018-09-13T05:01:15.254Z,92.80
2018-09-13T05:03:43.646Z,93.40
2018-09-13T05:06:11.930Z,93.60
2018-09-13T05:08:40.174Z,92.90
2018-09-13T05:11:09.019Z,92.40
2018-09-13T05:13:37.367Z,92.20
2018-09-13T05:16:06.519Z,92.20
2018-09-13T05:18:34.797Z,92.00
2018-09-13T05:21:03.042Z,91.70
2018-09-13T05:23:31.286Z,91.50
2018-09-13T05:25:59.561Z,91.30
2018-09-13T05:28:27.826Z,91.10
2018-09-13T05:30:56.081Z,91.00
2018-09-13T05:33:24.401Z,90.90
2018-09-13T05:35:52.697Z,90.80
2018-09-13T05:38:21.690Z,91.60
2018-09-13T05:40:49.958Z,92.30
2018-09-13T05:43:19.582Z,92.20
2018-09-13T05:45:48.288Z,91.90
2018-09-13T05:48:18.142Z,91.70
2018-09-13T05:50:47.300Z,91.50
2018-09-13T05:53:15.588Z,91.20
2018-09-13T05:55:43.912Z,91.20
2018-09-13T05:58:12.203Z,91.10
2018-09-13T06:00:40.522Z,91.00
2018-09-13T06:03:12.020Z,90.80
2018-09-13T06:05:41.195Z,90.70
2018-09-13T06:08:10.794Z,90.60
2018-09-13T06:10:39.132Z,90.90
2018-09-13T06:13:08.201Z,92.00
2018-09-13T06:15:36.498Z,92.70
2018-09-13T06:18:04.741Z,92.90
2018-09-13T06:20:32.999Z,93.40
2018-09-13T06:23:01.258Z,93.60
2018-09-13T06:25:29.596Z,94.00
2018-09-13T06:27:58.734Z,94.20
2018-09-13T06:30:26.994Z,94.50
2018-09-13T06:32:55.272Z,94.00
2018-09-13T06:35:23.517Z,95.00
2018-09-13T06:37:51.817Z,94.90
2018-09-13T06:40:20.193Z,94.70
2018-09-13T06:42:49.274Z,93.50
2018-09-13T06:45:17.585Z,92.90
2018-09-13T06:47:45.865Z,92.60
2018-09-13T06:50:14.106Z,92.40
2018-09-13T06:52:42.394Z,92.50
2018-09-13T06:55:10.663Z,93.10
2018-09-13T06:57:38.932Z,92.70
2018-09-13T07:00:07.225Z,92.70
2018-09-13T07:02:35.548Z,92.70
2018-09-13T07:05:03.751Z,92.80
2018-09-13T07:07:32.558Z,93.10
2018-09-13T07:10:00.866Z,93.10
2018-09-13T07:12:29.163Z,92.90
2018-09-13T07:14:57.375Z,92.50
2018-09-13T07:17:25.694Z,92.40
2018-09-13T07:19:54.026Z,92.60
2018-09-13T07:22:23.070Z,92.50
2018-09-13T07:24:52.322Z,92.40
2018-09-13T07:27:20.596Z,91.70
2018-09-13T07:29:49.474Z,92.10
2018-09-13T07:32:18.304Z,91.80
2018-09-13T07:34:47.407Z,91.80
2018-09-13T07:37:15.768Z,91.20
2018-09-13T07:39:45.049Z,91.40
2018-09-13T07:42:13.295Z,91.60
2018-09-13T07:44:41.618Z,91.10
2018-09-13T07:47:10.932Z,91.40
2018-09-13T07:49:40.145Z,91.10
2018-09-13T07:52:08.418Z,91.50
2018-09-13T07:54:38.806Z,90.60
2018-09-13T07:57:07.697Z,90.30
2018-09-13T07:59:35.955Z,90.60
2018-09-13T08:02:08.038Z,90.00
2018-09-13T08:04:36.319Z,89.60
2018-09-13T08:07:04.597Z,90.20
2018-09-13T08:09:33.424Z,90.70
2018-09-13T08:12:01.768Z,90.10
2018-09-13T08:14:30.592Z,90.20
2018-09-13T08:17:01.506Z,90.40
2018-09-13T08:19:29.779Z,90.00
2018-09-13T08:21:58.093Z,89.10
2018-09-13T08:24:26.575Z,88.10
2018-09-13T08:26:54.893Z,88.30
2018-09-13T08:29:23.925Z,89.30
2018-09-13T08:31:52.191Z,88.90
2018-09-13T08:34:23.629Z,88.80
2018-09-13T08:36:53.791Z,89.80
2018-09-13T08:39:27.580Z,88.10
2018-09-13T08:41:58.667Z,87.50
2018-09-13T08:44:30.537Z,87.60
2018-09-13T08:47:13.736Z,87.70
2018-09-13T08:49:55.878Z,87.60
2018-09-13T08:52:26.541Z,87.30
2018-09-13T08:54:55.083Z,86.90
2018-09-13T08:57:24.761Z,86.20
2018-09-13T08:59:54.121Z,85.60
2018-09-13T09:02:23.117Z,86.30
2018-09-13T09:05:04.259Z,83.90
2018-09-13T09:07:37.873Z,84.00
2018-09-13T09:10:17.468Z,84.50
2018-09-13T09:12:45.983Z,85.00
2018-09-13T09:15:20.563Z,84.00
2018-09-13T09:18:05.049Z,84.80
2018-09-13T09:20:44.239Z,85.50
2018-09-13T09:23:15.327Z,83.10
2018-09-13T09:27:20.406Z,81.80
2018-09-13T09:30:47.004Z,82.30
2018-09-13T09:33:37.805Z,84.00
2018-09-13T09:36:11.460Z,83.10
2018-09-13T09:38:40.920Z,83.00
2018-09-13T09:41:10.643Z,83.10
2018-09-13T09:44:02.252Z,83.00
2018-09-13T09:46:31.163Z,83.10
2018-09-13T09:49:00.131Z,83.10
2018-09-13T09:51:28.426Z,80.60
2018-09-13T09:53:56.767Z,79.50
2018-09-13T09:56:26.958Z,79.70
2018-09-13T09:58:55.318Z,80.50
2018-09-13T10:01:29.588Z,80.80
2018-09-13T10:03:58.936Z,79.60
2018-09-13T10:06:27.238Z,80.60
2018-09-13T10:08:56.963Z,79.40
2018-09-13T10:11:25.327Z,75.80
2018-09-13T10:13:53.649Z,78.40
2018-09-13T10:16:27.230Z,78.40
2018-09-13T10:19:00.902Z,78.10
2018-09-13T10:21:36.619Z,76.80
2018-09-13T10:24:10.307Z,76.50
2018-09-13T10:26:47.612Z,76.10
2018-09-13T10:31:22.443Z,77.30
2018-09-13T10:33:57.810Z,79.50
2018-09-13T10:36:31.478Z,78.30
2018-09-13T10:39:05.053Z,78.00
2018-09-13T10:41:38.879Z,79.10
2018-09-13T10:44:14.126Z,75.60
2018-09-13T10:46:42.422Z,75.40
2018-09-13T10:49:16.848Z,76.50
2018-09-13T10:51:52.360Z,76.00
2018-09-13T10:54:25.324Z,75.40
2018-09-13T10:56:53.500Z,75.20
2018-09-13T10:59:22.606Z,74.90
2018-09-13T11:01:51.500Z,74.70
2018-09-13T11:04:20.803Z,75.80
2018-09-13T11:06:49.033Z,74.50
2018-09-13T11:09:20.246Z,75.80
2018-09-13T11:11:49.382Z,74.10
2018-09-13T11:14:22.745Z,73.90
2018-09-13T11:16:55.069Z,73.20
2018-09-13T11:19:23.447Z,70.50
2018-09-13T11:21:57.102Z,72.40
2018-09-13T11:24:40.413Z,69.20
2018-09-13T11:27:16.118Z,72.10
2018-09-13T11:29:46.364Z,70.50
2018-09-13T11:32:18.687Z,70.90
2018-09-13T11:34:48.754Z,70.20
2018-09-13T11:37:18.608Z,71.90
2018-09-13T11:40:09.724Z,72.10
2018-09-13T11:42:41.013Z,70.00
2018-09-13T11:45:13.764Z,68.40
2018-09-13T11:47:45.636Z,71.00
2018-09-13T11:50:22.405Z,69.80
2018-09-13T11:52:58.124Z,69.80
2018-09-13T11:55:27.524Z,67.80
2018-09-13T12:00:38.335Z,70.30
2018-09-13T12:03:09.589Z,68.60
2018-09-13T12:05:56.466Z,69.10
2018-09-13T12:08:28.014Z,65.60
2018-09-13T12:16:04.809Z,66.70
2018-09-13T12:19:10.417Z,65.90
2018-09-13T12:27:19.334Z,65.10
2018-09-13T12:33:05.985Z,63.70
2018-09-13T12:35:35.739Z,61.80
2018-09-13T12:38:16.734Z,62.60
2018-09-13T12:40:50.055Z,61.80
2018-09-13T12:43:27.672Z,64.50
2018-09-13T12:45:59.950Z,64.80
2018-09-13T12:51:30.004Z,66.00
2018-09-13T12:54:04.895Z,66.60
2018-09-13T12:56:37.811Z,66.00
2018-09-13T13:02:17.074Z,65.40
2018-09-13T13:04:48.249Z,66.40
2018-09-13T13:07:16.561Z,67.30
2018-09-13T13:09:45.112Z,67.90
2018-09-13T13:12:13.359Z,68.40
2018-09-13T13:14:41.606Z,68.60
2018-09-13T13:17:09.858Z,68.30
2018-09-13T13:19:38.387Z,69.20
2018-09-13T13:22:06.656Z,68.40
2018-09-13T13:24:34.965Z,67.30
2018-09-13T13:27:03.598Z,67.90
2018-09-13T13:29:31.819Z,67.50
2018-09-13T13:32:00.077Z,66.80
2018-09-13T13:34:28.316Z,67.50
2018-09-13T13:36:56.564Z,68.00
2018-09-13T13:39:24.847Z,68.40
2018-09-13T13:41:53.105Z,67.60
2018-09-13T13:44:21.339Z,68.10
2018-09-13T13:46:49.883Z,67.70
2018-09-13T13:49:18.124Z,68.10
2018-09-13T13:51:46.387Z,68.30
2018-09-13T13:54:14.645Z,68.10
2018-09-13T13:56:43.571Z,68.70
2018-09-13T13:59:11.833Z,68.60
2018-09-13T14:01:40.094Z,69.20
2018-09-13T14:04:08.899Z,69.50
2018-09-13T14:06:37.139Z,68.30
2018-09-13T14:09:09.446Z,65.00
2018-09-13T14:11:37.735Z,65.30
2018-09-13T14:14:06.002Z,66.60
2018-09-13T14:16:34.302Z,66.80
2018-09-13T14:19:02.553Z,64.60
2018-09-13T14:21:30.894Z,65.00
2018-09-13T14:23:59.168Z,64.00
2018-09-13T14:26:27.546Z,63.20
2018-09-13T14:28:55.857Z,63.90
2018-09-13T14:31:24.448Z,65.00
2018-09-13T14:33:52.723Z,62.10
2018-09-13T14:36:21.114Z,62.90
2018-09-13T14:38:49.694Z,62.50
2018-09-13T14:41:18.073Z,63.40
2018-09-13T14:43:46.318Z,60.80
2018-09-13T14:46:14.676Z,62.00
2018-09-13T14:48:43.613Z,61.20
2018-09-13T14:51:11.883Z,60.30
2018-09-13T14:53:41.401Z,60.80
2018-09-13T14:56:09.677Z,61.50
2018-09-13T14:58:37.930Z,61.90
2018-09-13T15:01:07.637Z,59.80
2018-09-13T15:03:35.940Z,61.70
2018-09-13T15:06:04.299Z,62.60
2018-09-13T15:08:32.551Z,61.10
2018-09-13T15:11:00.846Z,63.10
2018-09-13T15:13:29.160Z,63.10
2018-09-13T15:15:57.910Z,62.70
2018-09-13T15:18:26.176Z,62.50
2018-09-13T15:20:54.482Z,63.40
2018-09-13T15:23:22.734Z,63.30
2018-09-13T15:25:51.941Z,64.10
2018-09-13T15:28:20.181Z,63.70
2018-09-13T15:30:48.904Z,63.70
2018-09-13T15:33:17.186Z,62.50
2018-09-13T15:35:45.446Z,62.20
2018-09-13T15:38:13.692Z,62.40
2018-09-13T15:40:41.947Z,62.00
2018-09-13T15:43:10.454Z,62.60
2018-09-13T15:45:38.914Z,62.10
2018-09-13T15:48:07.490Z,62.60
2018-09-13T15:50:35.759Z,60.10
2018-09-13T15:53:04.426Z,61.80
2018-09-13T15:55:32.674Z,61.90
2018-09-13T15:58:00.956Z,60.70
2018-09-13T16:00:29.209Z,61.50
2018-09-13T16:02:57.493Z,62.00
2018-09-13T16:05:25.775Z,62.30
2018-09-13T16:07:54.053Z,62.80
2018-09-13T16:10:22.556Z,63.90
2018-09-13T16:12:50.918Z,63.00
2018-09-13T16:15:19.813Z,64.20
2018-09-13T16:17:48.054Z,63.00
2018-09-13T16:20:16.284Z,64.10
2018-09-13T16:22:44.555Z,63.80
2018-09-13T16:25:12.814Z,65.10
2018-09-13T16:27:41.075Z,65.00
2018-09-13T16:30:09.398Z,65.80
2018-09-13T16:32:37.664Z,66.40
2018-09-13T16:35:06.555Z,67.20
2018-09-13T16:37:40.086Z,67.40
2018-09-13T16:40:14.150Z,67.20
2018-09-13T16:42:52.980Z,66.70
2018-09-13T16:45:22.245Z,68.40
2018-09-13T16:47:57.256Z,69.00
2018-09-13T16:50:25.537Z,69.50
2018-09-13T16:52:53.833Z,70.00
2018-09-13T16:55:22.217Z,71.60
2018-09-13T16:57:50.598Z,71.00
2018-09-13T17:00:20.251Z,71.60
2018-09-13T17:02:48.579Z,71.90
2018-09-13T17:05:16.838Z,72.70
2018-09-13T17:07:45.304Z,72.70
2018-09-13T17:10:13.528Z,72.30
2018-09-13T17:12:41.904Z,72.50
2018-09-13T17:15:10.167Z,73.60
2018-09-13T17:17:38.633Z,73.60
2018-09-13T17:20:06.964Z,73.60
2018-09-13T17:22:35.218Z,74.00
2018-09-13T17:25:03.502Z,73.40
2018-09-13T17:27:31.822Z,73.80
2018-09-13T17:30:00.090Z,74.40
2018-09-13T17:32:28.391Z,74.70
2018-09-13T17:34:56.638Z,74.30
2018-09-13T17:37:24.928Z,74.70
2018-09-13T17:39:53.267Z,74.70
2018-09-13T17:42:21.549Z,74.80
2018-09-13T17:44:49.806Z,75.30
2018-09-13T17:47:18.091Z,75.50
2018-09-13T17:49:46.382Z,75.60
2018-09-13T17:52:14.645Z,75.20
2018-09-13T17:54:43.098Z,75.80
2018-09-13T17:57:11.458Z,76.10
2018-09-13T17:59:40.602Z,76.40
2018-09-13T18:02:09.270Z,77.20
2018-09-13T18:04:38.200Z,76.60
2018-09-13T18:07:06.505Z,77.80
2018-09-13T18:09:36.449Z,77.40
2018-09-13T18:12:04.702Z,77.70
2018-09-13T18:14:32.963Z,77.90
2018-09-13T18:17:01.219Z,78.00
2018-09-13T18:19:29.720Z,77.90
2018-09-13T18:21:57.986Z,78.20
2018-09-13T18:24:26.638Z,78.70
2018-09-13T18:26:54.893Z,78.60
2018-09-13T18:29:23.167Z,79.20
2018-09-13T18:31:51.472Z,78.60
2018-09-13T18:34:19.828Z,78.40
2018-09-13T18:36:48.099Z,78.60
2018-09-13T18:39:16.353Z,78.50
2018-09-13T18:41:44.633Z,78.80
2018-09-13T18:44:13.750Z,78.50
2018-09-13T18:46:42.030Z,78.20
2018-09-13T18:49:10.291Z,78.40
2018-09-13T18:51:38.581Z,78.10
2018-09-13T18:54:09.639Z,78.50
2018-09-13T18:56:38.155Z,79.20
2018-09-13T18:59:06.411Z,79.50
2018-09-13T19:01:34.662Z,79.90
2018-09-13T19:04:03.002Z,79.60
2018-09-13T19:06:32.155Z,79.30
2018-09-13T19:09:00.414Z,78.50
2018-09-13T19:11:28.707Z,78.20
2018-09-13T19:13:57.006Z,78.30
2018-09-13T19:16:25.671Z,78.40
2018-09-13T19:18:53.956Z,78.20
2018-09-13T19:21:22.347Z,78.30
2018-09-13T19:23:50.978Z,78.40
2018-09-13T19:26:19.905Z,78.80
2018-09-13T19:28:48.170Z,78.50
2018-09-13T19:31:17.400Z,78.00
2018-09-13T19:33:45.707Z,77.70
2018-09-13T19:36:13.983Z,77.30
2018-09-13T19:38:42.356Z,77.10
2018-09-13T19:41:17.416Z,77.20
2018-09-13T19:43:45.723Z,77.00
2018-09-13T19:46:14.072Z,77.00
2018-09-13T19:48:43.100Z,77.00
2018-09-13T19:51:11.535Z,76.90
2018-09-13T19:53:40.269Z,76.60
2018-09-13T19:56:08.659Z,76.90
2018-09-13T19:58:37.147Z,76.70
2018-09-13T20:01:12.718Z,76.70
2018-09-13T20:03:44.043Z,76.80
2018-09-13T20:06:12.390Z,77.00
2018-09-13T20:08:40.929Z,76.90
2018-09-13T20:11:09.985Z,77.60
2018-09-13T20:13:38.283Z,77.60
2018-09-13T20:16:06.689Z,77.20
2018-09-13T20:18:34.995Z,77.40
2018-09-13T20:21:03.619Z,77.30
2018-09-13T20:23:32.063Z,77.20
2018-09-13T20:26:00.343Z,77.30
2018-09-13T20:28:28.759Z,77.40
2018-09-13T20:30:59.249Z,77.60
2018-09-13T20:33:30.434Z,77.40
2018-09-13T20:36:01.279Z,77.50
2018-09-13T20:38:32.657Z,77.40
2018-09-13T20:41:03.319Z,77.30
2018-09-13T20:43:34.609Z,78.50
2018-09-13T20:46:05.100Z,80.20
2018-09-13T20:48:34.580Z,80.20
2018-09-13T20:51:05.787Z,79.70
2018-09-13T20:53:37.072Z,79.40
2018-09-13T20:56:08.271Z,81.90
2018-09-13T20:58:38.654Z,84.40
2018-09-13T21:01:06.971Z,85.00
2018-09-13T21:03:35.323Z,85.00
2018-09-13T21:06:03.657Z,85.20
2018-09-13T21:08:31.988Z,87.80
2018-09-13T21:11:01.394Z,86.00
2018-09-13T21:13:29.671Z,84.80
2018-09-13T21:15:58.141Z,83.70
2018-09-13T21:18:26.656Z,84.00
2018-09-13T21:20:55.055Z,84.70
2018-09-13T21:23:23.579Z,82.90
2018-09-13T21:25:51.940Z,82.50
2018-09-13T21:28:20.306Z,83.30
2018-09-13T21:30:48.684Z,83.40
2018-09-13T21:33:17.278Z,83.10
2018-09-13T21:35:45.559Z,82.70
2018-09-13T21:38:13.955Z,82.60
2018-09-13T21:40:43.251Z,81.90
2018-09-13T21:43:11.585Z,81.90
2018-09-13T21:45:40.297Z,81.50
2018-09-13T21:48:09.191Z,81.40
2018-09-13T21:50:37.458Z,81.50
2018-09-13T21:53:05.714Z,81.20
2018-09-13T21:55:34.541Z,81.40
2018-09-13T21:58:02.927Z,81.20
2018-09-13T22:00:31.265Z,81.30
2018-09-13T22:02:59.930Z,81.30
2018-09-13T22:05:28.216Z,82.30
2018-09-13T22:07:56.584Z,81.30
2018-09-13T22:10:25.246Z,81.10
2018-09-13T22:12:53.538Z,80.80
2018-09-13T22:15:21.959Z,81.00
2018-09-13T22:17:51.338Z,81.20
2018-09-13T22:20:19.603Z,81.30
2018-09-13T22:22:48.407Z,82.90
2018-09-13T22:25:16.682Z,82.50
2018-09-13T22:27:44.957Z,82.60
2018-09-13T22:30:13.986Z,82.30
2018-09-13T22:32:42.591Z,82.10
2018-09-13T22:35:10.833Z,81.90
2018-09-13T22:37:39.093Z,81.90
2018-09-13T22:40:08.242Z,82.40
2018-09-13T22:42:36.499Z,82.70
2018-09-13T22:45:05.149Z,82.50
2018-09-13T22:47:33.895Z,82.00
2018-09-13T22:50:02.148Z,82.10
2018-09-13T22:52:30.418Z,81.70
2018-09-13T22:54:58.672Z,82.00
2018-09-13T22:57:26.998Z,81.90
2018-09-13T22:59:55.207Z,82.10
2018-09-13T23:02:23.449Z,81.70
2018-09-13T23:04:51.705Z,81.80
2018-09-13T23:07:20.167Z,82.00
2018-09-13T23:09:48.779Z,82.10
2018-09-13T23:12:17.025Z,81.80
2018-09-13T23:14:45.257Z,81.80
2018-09-13T23:17:13.523Z,82.10
2018-09-13T23:19:41.807Z,82.30
2018-09-13T23:22:11.147Z,82.00
2018-09-13T23:24:39.379Z,82.10
2018-09-13T23:27:09.590Z,81.80
2018-09-13T23:29:40.348Z,82.00
2018-09-13T23:32:08.612Z,81.90
2018-09-13T23:34:36.862Z,81.70
2018-09-13T23:37:05.544Z,82.00
2018-09-13T23:39:33.939Z,82.00
2018-09-13T23:42:02.043Z,82.10
2018-09-13T23:44:30.374Z,82.20
2018-09-13T23:46:58.605Z,82.00
2018-09-13T23:49:27.732Z,81.90
2018-09-13T23:51:56.003Z,81.90
2018-09-13T23:54:24.237Z,81.90
2018-09-13T23:56:52.479Z,82.00
2018-09-13T23:59:21.271Z,81.90
